sensor_id;sensor_type;location;lat;lon;timestamp;P1;durP1;ratioP1;P2;durP2;ratioP2
20956;SDS011;10637;47.970;7.830;2024-01-30T00:03:59;12.97;;;3.30;;
20956;SDS011;10637;47.970;7.830;2024-01-30T00:09:01;9.57;;;2.20;;
20956;SDS011;10637;47.970;7.830;2024-01-30T00:14:03;9.40;;;2.97;;
20956;SDS011;10637;47.970;7.830;2024-01-30T00:19:06;27.93;;;8.10;;
20956;SDS011;10637;47.970;7.830;2024-01-30T00:24:09;13.77;;;3.37;;
20956;SDS011;10637;47.970;7.830;2024-01-30T00:29:11;16.53;;;4.50;;
20956;SDS011;10637;47.970;7.830;2024-01-30T00:34:21;11.00;;;2.00;;
20956;SDS011;10637;47.970;7.830;2024-01-30T00:39:23;8.10;;;2.50;;
20956;SDS011;10637;47.970;7.830;2024-01-30T00:44:24;8.50;;;2.40;;
20956;SDS011;10637;47.970;7.830;2024-01-30T00:49:26;11.80;;;2.50;;
20956;SDS011;10637;47.970;7.830;2024-01-30T00:54:29;8.57;;;2.67;;
20956;SDS011;10637;47.970;7.830;2024-01-30T00:59:33;8.17;;;2.40;;
20956;SDS011;10637;47.970;7.830;2024-01-30T01:04:35;7.57;;;2.10;;
20956;SDS011;10637;47.970;7.830;2024-01-30T01:09:37;8.17;;;2.30;;
20956;SDS011;10637;47.970;7.830;2024-01-30T01:14:39;8.67;;;2.30;;
20956;SDS011;10637;47.970;7.830;2024-01-30T01:19:41;6.20;;;2.00;;
20956;SDS011;10637;47.970;7.830;2024-01-30T01:24:43;7.43;;;2.10;;
20956;SDS011;10637;47.970;7.830;2024-01-30T01:29:45;8.07;;;2.10;;
20956;SDS011;10637;47.970;7.830;2024-01-30T01:34:47;8.07;;;2.40;;
20956;SDS011;10637;47.970;7.830;2024-01-30T01:39:57;11.73;;;3.07;;
20956;SDS011;10637;47.970;7.830;2024-01-30T01:44:59;9.17;;;2.57;;
20956;SDS011;10637;47.970;7.830;2024-01-30T01:50:01;8.13;;;2.33;;
20956;SDS011;10637;47.970;7.830;2024-01-30T01:55:04;9.40;;;2.37;;
20956;SDS011;10637;47.970;7.830;2024-01-30T02:00:06;8.27;;;2.33;;
20956;SDS011;10637;47.970;7.830;2024-01-30T02:05:11;7.37;;;2.40;;
20956;SDS011;10637;47.970;7.830;2024-01-30T02:10:13;9.43;;;3.00;;
20956;SDS011;10637;47.970;7.830;2024-01-30T02:15:16;9.57;;;2.63;;
20956;SDS011;10637;47.970;7.830;2024-01-30T02:20:18;8.47;;;2.77;;
20956;SDS011;10637;47.970;7.830;2024-01-30T02:25:20;9.67;;;3.00;;
20956;SDS011;10637;47.970;7.830;2024-01-30T02:30:22;10.90;;;2.87;;
20956;SDS011;10637;47.970;7.830;2024-01-30T02:35:23;8.30;;;2.33;;
20956;SDS011;10637;47.970;7.830;2024-01-30T02:40:28;10.67;;;2.80;;
20956;SDS011;10637;47.970;7.830;2024-01-30T02:45:30;9.63;;;2.70;;
20956;SDS011;10637;47.970;7.830;2024-01-30T02:50:32;7.20;;;2.30;;
20956;SDS011;10637;47.970;7.830;2024-01-30T02:55:33;9.20;;;2.40;;
20956;SDS011;10637;47.970;7.830;2024-01-30T03:00:36;35.73;;;13.07;;
20956;SDS011;10637;47.970;7.830;2024-01-30T03:05:38;10.70;;;3.87;;
20956;SDS011;10637;47.970;7.830;2024-01-30T03:10:40;10.20;;;2.80;;
20956;SDS011;10637;47.970;7.830;2024-01-30T03:15:41;8.90;;;2.73;;
20956;SDS011;10637;47.970;7.830;2024-01-30T03:20:43;10.53;;;3.10;;
20956;SDS011;10637;47.970;7.830;2024-01-30T03:25:49;8.57;;;2.90;;
20956;SDS011;10637;47.970;7.830;2024-01-30T03:30:52;7.90;;;2.33;;
20956;SDS011;10637;47.970;7.830;2024-01-30T03:35:54;7.60;;;2.60;;
20956;SDS011;10637;47.970;7.830;2024-01-30T03:40:56;8.17;;;2.33;;
20956;SDS011;10637;47.970;7.830;2024-01-30T03:45:59;7.57;;;2.47;;
20956;SDS011;10637;47.970;7.830;2024-01-30T03:51:07;8.50;;;2.43;;
20956;SDS011;10637;47.970;7.830;2024-01-30T03:56:09;7.93;;;2.60;;
20956;SDS011;10637;47.970;7.830;2024-01-30T04:01:15;8.53;;;2.63;;
20956;SDS011;10637;47.970;7.830;2024-01-30T04:06:17;7.30;;;2.60;;
20956;SDS011;10637;47.970;7.830;2024-01-30T04:11:19;7.80;;;2.63;;
20956;SDS011;10637;47.970;7.830;2024-01-30T04:16:21;8.90;;;2.87;;
20956;SDS011;10637;47.970;7.830;2024-01-30T04:21:24;11.33;;;3.20;;
20956;SDS011;10637;47.970;7.830;2024-01-30T04:26:26;11.00;;;3.20;;
20956;SDS011;10637;47.970;7.830;2024-01-30T04:31:28;15.63;;;4.90;;
20956;SDS011;10637;47.970;7.830;2024-01-30T04:36:29;14.17;;;4.10;;
20956;SDS011;10637;47.970;7.830;2024-01-30T04:41:31;10.60;;;3.20;;
20956;SDS011;10637;47.970;7.830;2024-01-30T04:46:33;10.23;;;3.13;;
20956;SDS011;10637;47.970;7.830;2024-01-30T04:51:35;26.47;;;11.67;;
20956;SDS011;10637;47.970;7.830;2024-01-30T04:56:39;22.13;;;8.40;;
20956;SDS011;10637;47.970;7.830;2024-01-30T05:01:41;10.73;;;3.33;;
20956;SDS011;10637;47.970;7.830;2024-01-30T05:06:43;11.20;;;3.37;;
20956;SDS011;10637;47.970;7.830;2024-01-30T05:11:45;39.10;;;15.57;;
20956;SDS011;10637;47.970;7.830;2024-01-30T05:16:47;15.47;;;5.63;;
20956;SDS011;10637;47.970;7.830;2024-01-30T05:21:49;9.63;;;3.33;;
20956;SDS011;10637;47.970;7.830;2024-01-30T05:26:51;8.73;;;2.93;;
20956;SDS011;10637;47.970;7.830;2024-01-30T05:31:53;11.03;;;4.07;;
20956;SDS011;10637;47.970;7.830;2024-01-30T05:36:59;6.70;;;2.60;;
20956;SDS011;10637;47.970;7.830;2024-01-30T05:42:02;8.70;;;2.67;;
20956;SDS011;10637;47.970;7.830;2024-01-30T05:47:04;10.73;;;3.60;;
20956;SDS011;10637;47.970;7.830;2024-01-30T05:52:06;11.03;;;3.43;;
20956;SDS011;10637;47.970;7.830;2024-01-30T05:57:08;11.83;;;3.57;;
20956;SDS011;10637;47.970;7.830;2024-01-30T06:02:10;15.83;;;5.73;;
20956;SDS011;10637;47.970;7.830;2024-01-30T06:07:13;24.97;;;7.63;;
20956;SDS011;10637;47.970;7.830;2024-01-30T06:12:17;27.23;;;11.83;;
20956;SDS011;10637;47.970;7.830;2024-01-30T06:17:19;14.67;;;5.47;;
20956;SDS011;10637;47.970;7.830;2024-01-30T06:22:21;14.97;;;5.60;;
20956;SDS011;10637;47.970;7.830;2024-01-30T06:27:23;20.50;;;6.70;;
20956;SDS011;10637;47.970;7.830;2024-01-30T06:32:25;15.90;;;5.77;;
20956;SDS011;10637;47.970;7.830;2024-01-30T06:37:27;18.53;;;6.83;;
20956;SDS011;10637;47.970;7.830;2024-01-30T06:42:29;19.07;;;7.47;;
20956;SDS011;10637;47.970;7.830;2024-01-30T06:47:30;16.00;;;6.00;;
20956;SDS011;10637;47.970;7.830;2024-01-30T06:52:33;19.93;;;7.40;;
20956;SDS011;10637;47.970;7.830;2024-01-30T06:57:35;13.23;;;5.23;;
20956;SDS011;10637;47.970;7.830;2024-01-30T07:02:36;17.90;;;6.90;;
20956;SDS011;10637;47.970;7.830;2024-01-30T07:07:38;18.93;;;7.30;;
20956;SDS011;10637;47.970;7.830;2024-01-30T07:12:40;16.97;;;6.23;;
20956;SDS011;10637;47.970;7.830;2024-01-30T07:17:42;31.37;;;10.53;;
20956;SDS011;10637;47.970;7.830;2024-01-30T07:22:44;20.13;;;6.97;;
20956;SDS011;10637;47.970;7.830;2024-01-30T07:27:45;14.43;;;5.40;;
20956;SDS011;10637;47.970;7.830;2024-01-30T07:32:48;12.83;;;4.30;;
20956;SDS011;10637;47.970;7.830;2024-01-30T07:37:50;15.30;;;5.63;;
20956;SDS011;10637;47.970;7.830;2024-01-30T07:42:53;23.20;;;7.60;;
20956;SDS011;10637;47.970;7.830;2024-01-30T07:47:58;14.13;;;4.77;;
20956;SDS011;10637;47.970;7.830;2024-01-30T07:53:02;13.00;;;4.90;;
20956;SDS011;10637;47.970;7.830;2024-01-30T07:58:04;13.70;;;4.60;;
20956;SDS011;10637;47.970;7.830;2024-01-30T08:03:06;16.13;;;5.20;;
20956;SDS011;10637;47.970;7.830;2024-01-30T08:08:07;15.67;;;5.50;;
20956;SDS011;10637;47.970;7.830;2024-01-30T08:13:09;13.17;;;5.40;;
20956;SDS011;10637;47.970;7.830;2024-01-30T08:18:17;12.30;;;4.67;;
20956;SDS011;10637;47.970;7.830;2024-01-30T08:23:19;15.10;;;4.70;;
20956;SDS011;10637;47.970;7.830;2024-01-30T08:28:21;12.87;;;4.20;;
20956;SDS011;10637;47.970;7.830;2024-01-30T08:33:23;13.10;;;4.30;;
20956;SDS011;10637;47.970;7.830;2024-01-30T08:38:24;12.23;;;4.53;;
20956;SDS011;10637;47.970;7.830;2024-01-30T08:43:26;12.37;;;4.63;;
20956;SDS011;10637;47.970;7.830;2024-01-30T08:48:28;12.60;;;4.03;;
20956;SDS011;10637;47.970;7.830;2024-01-30T08:53:31;9.83;;;3.47;;
20956;SDS011;10637;47.970;7.830;2024-01-30T08:58:40;10.97;;;3.97;;
20956;SDS011;10637;47.970;7.830;2024-01-30T09:03:42;10.40;;;3.83;;
20956;SDS011;10637;47.970;7.830;2024-01-30T09:08:49;11.07;;;4.33;;
20956;SDS011;10637;47.970;7.830;2024-01-30T09:13:51;11.83;;;3.80;;
20956;SDS011;10637;47.970;7.830;2024-01-30T09:18:53;9.43;;;4.10;;
20956;SDS011;10637;47.970;7.830;2024-01-30T09:24:00;11.27;;;4.53;;
20956;SDS011;10637;47.970;7.830;2024-01-30T09:29:04;10.97;;;4.13;;
20956;SDS011;10637;47.970;7.830;2024-01-30T09:34:09;11.37;;;4.33;;
20956;SDS011;10637;47.970;7.830;2024-01-30T09:39:11;12.30;;;5.27;;
20956;SDS011;10637;47.970;7.830;2024-01-30T09:44:13;12.37;;;5.13;;
20956;SDS011;10637;47.970;7.830;2024-01-30T09:49:21;14.77;;;5.00;;
20956;SDS011;10637;47.970;7.830;2024-01-30T09:54:26;14.33;;;5.63;;
20956;SDS011;10637;47.970;7.830;2024-01-30T09:59:29;11.53;;;4.63;;
20956;SDS011;10637;47.970;7.830;2024-01-30T10:04:31;12.37;;;4.63;;
20956;SDS011;10637;47.970;7.830;2024-01-30T10:09:33;14.80;;;5.87;;
20956;SDS011;10637;47.970;7.830;2024-01-30T10:14:39;12.87;;;4.97;;
20956;SDS011;10637;47.970;7.830;2024-01-30T10:19:42;13.70;;;4.07;;
20956;SDS011;10637;47.970;7.830;2024-01-30T10:24:44;16.10;;;5.60;;
20956;SDS011;10637;47.970;7.830;2024-01-30T10:29:48;14.90;;;5.53;;
20956;SDS011;10637;47.970;7.830;2024-01-30T10:34:50;12.03;;;4.00;;
20956;SDS011;10637;47.970;7.830;2024-01-30T10:39:53;10.90;;;3.90;;
20956;SDS011;10637;47.970;7.830;2024-01-30T10:45:00;14.47;;;3.53;;
20956;SDS011;10637;47.970;7.830;2024-01-30T10:50:13;10.10;;;3.50;;
20956;SDS011;10637;47.970;7.830;2024-01-30T10:55:16;8.33;;;2.70;;
20956;SDS011;10637;47.970;7.830;2024-01-30T11:00:20;9.93;;;2.80;;
20956;SDS011;10637;47.970;7.830;2024-01-30T11:05:25;7.90;;;2.73;;
20956;SDS011;10637;47.970;7.830;2024-01-30T11:10:33;10.40;;;3.07;;
20956;SDS011;10637;47.970;7.830;2024-01-30T11:15:47;9.40;;;2.73;;
20956;SDS011;10637;47.970;7.830;2024-01-30T11:20:50;9.23;;;2.80;;
20956;SDS011;10637;47.970;7.830;2024-01-30T11:25:53;9.87;;;3.10;;
20956;SDS011;10637;47.970;7.830;2024-01-30T11:31:04;11.40;;;3.33;;
20956;SDS011;10637;47.970;7.830;2024-01-30T11:36:10;9.00;;;3.30;;
20956;SDS011;10637;47.970;7.830;2024-01-30T11:41:15;9.43;;;3.03;;
20956;SDS011;10637;47.970;7.830;2024-01-30T11:46:17;10.73;;;2.83;;
20956;SDS011;10637;47.970;7.830;2024-01-30T11:51:19;10.03;;;3.37;;
20956;SDS011;10637;47.970;7.830;2024-01-30T11:56:21;8.70;;;2.67;;
20956;SDS011;10637;47.970;7.830;2024-01-30T12:01:24;9.37;;;2.93;;
20956;SDS011;10637;47.970;7.830;2024-01-30T12:06:33;10.10;;;2.93;;
20956;SDS011;10637;47.970;7.830;2024-01-30T12:11:48;9.23;;;3.00;;
20956;SDS011;10637;47.970;7.830;2024-01-30T12:16:53;8.80;;;3.30;;
20956;SDS011;10637;47.970;7.830;2024-01-30T12:21:58;10.43;;;3.17;;
20956;SDS011;10637;47.970;7.830;2024-01-30T12:27:03;9.63;;;3.30;;
20956;SDS011;10637;47.970;7.830;2024-01-30T12:32:05;9.43;;;4.03;;
20956;SDS011;10637;47.970;7.830;2024-01-30T12:37:07;13.77;;;5.60;;
20956;SDS011;10637;47.970;7.830;2024-01-30T12:42:10;13.97;;;4.83;;
20956;SDS011;10637;47.970;7.830;2024-01-30T12:47:12;10.50;;;4.07;;
20956;SDS011;10637;47.970;7.830;2024-01-30T12:52:20;13.33;;;4.73;;
20956;SDS011;10637;47.970;7.830;2024-01-30T12:57:23;11.83;;;3.80;;
20956;SDS011;10637;47.970;7.830;2024-01-30T13:02:25;12.33;;;3.93;;
20956;SDS011;10637;47.970;7.830;2024-01-30T13:07:29;16.70;;;4.87;;
20956;SDS011;10637;47.970;7.830;2024-01-30T13:12:31;11.73;;;4.27;;
20956;SDS011;10637;47.970;7.830;2024-01-30T13:17:37;8.30;;;3.20;;
20956;SDS011;10637;47.970;7.830;2024-01-30T13:22:39;12.73;;;5.00;;
20956;SDS011;10637;47.970;7.830;2024-01-30T13:27:41;16.03;;;5.93;;
20956;SDS011;10637;47.970;7.830;2024-01-30T13:32:44;12.93;;;4.20;;
20956;SDS011;10637;47.970;7.830;2024-01-30T13:37:46;12.27;;;3.43;;
20956;SDS011;10637;47.970;7.830;2024-01-30T13:42:50;10.67;;;3.40;;
20956;SDS011;10637;47.970;7.830;2024-01-30T13:47:52;13.63;;;4.37;;
20956;SDS011;10637;47.970;7.830;2024-01-30T13:52:55;9.80;;;3.60;;
20956;SDS011;10637;47.970;7.830;2024-01-30T13:57:58;9.77;;;3.77;;
20956;SDS011;10637;47.970;7.830;2024-01-30T14:03:00;13.40;;;3.80;;
20956;SDS011;10637;47.970;7.830;2024-01-30T14:08:02;11.83;;;3.90;;
20956;SDS011;10637;47.970;7.830;2024-01-30T14:13:05;8.07;;;3.20;;
20956;SDS011;10637;47.970;7.830;2024-01-30T14:18:06;10.27;;;3.50;;
20956;SDS011;10637;47.970;7.830;2024-01-30T14:23:12;11.03;;;3.83;;
20956;SDS011;10637;47.970;7.830;2024-01-30T14:28:14;12.20;;;3.80;;
20956;SDS011;10637;47.970;7.830;2024-01-30T14:33:16;13.07;;;4.23;;
20956;SDS011;10637;47.970;7.830;2024-01-30T14:38:17;11.43;;;3.73;;
20956;SDS011;10637;47.970;7.830;2024-01-30T14:43:20;9.33;;;3.47;;
20956;SDS011;10637;47.970;7.830;2024-01-30T14:48:24;9.53;;;3.93;;
20956;SDS011;10637;47.970;7.830;2024-01-30T14:53:26;16.50;;;5.17;;
20956;SDS011;10637;47.970;7.830;2024-01-30T14:58:28;9.37;;;4.03;;
20956;SDS011;10637;47.970;7.830;2024-01-30T15:03:30;13.23;;;4.93;;
20956;SDS011;10637;47.970;7.830;2024-01-30T15:08:32;10.97;;;4.20;;
20956;SDS011;10637;47.970;7.830;2024-01-30T15:13:34;10.37;;;3.43;;
20956;SDS011;10637;47.970;7.830;2024-01-30T15:18:36;11.70;;;4.03;;
20956;SDS011;10637;47.970;7.830;2024-01-30T15:23:38;10.10;;;3.77;;
20956;SDS011;10637;47.970;7.830;2024-01-30T15:28:40;16.07;;;4.27;;
20956;SDS011;10637;47.970;7.830;2024-01-30T15:33:42;9.50;;;3.37;;
20956;SDS011;10637;47.970;7.830;2024-01-30T15:38:47;12.63;;;4.10;;
20956;SDS011;10637;47.970;7.830;2024-01-30T15:43:49;13.63;;;4.63;;
20956;SDS011;10637;47.970;7.830;2024-01-30T15:48:51;9.50;;;3.93;;
20956;SDS011;10637;47.970;7.830;2024-01-30T15:53:53;10.10;;;3.77;;
20956;SDS011;10637;47.970;7.830;2024-01-30T15:58:54;13.20;;;3.63;;
20956;SDS011;10637;47.970;7.830;2024-01-30T16:03:56;16.50;;;6.87;;
20956;SDS011;10637;47.970;7.830;2024-01-30T16:08:58;11.67;;;3.83;;
20956;SDS011;10637;47.970;7.830;2024-01-30T16:14:00;11.13;;;3.63;;
20956;SDS011;10637;47.970;7.830;2024-01-30T16:19:02;12.73;;;5.10;;
20956;SDS011;10637;47.970;7.830;2024-01-30T16:24:07;11.80;;;3.90;;
20956;SDS011;10637;47.970;7.830;2024-01-30T16:29:09;13.10;;;4.73;;
20956;SDS011;10637;47.970;7.830;2024-01-30T16:34:11;14.33;;;4.33;;
20956;SDS011;10637;47.970;7.830;2024-01-30T16:39:13;9.63;;;3.60;;
20956;SDS011;10637;47.970;7.830;2024-01-30T16:44:15;10.20;;;3.40;;
20956;SDS011;10637;47.970;7.830;2024-01-30T16:49:17;12.73;;;4.10;;
20956;SDS011;10637;47.970;7.830;2024-01-30T16:54:19;10.57;;;4.00;;
20956;SDS011;10637;47.970;7.830;2024-01-30T16:59:21;13.17;;;5.30;;
20956;SDS011;10637;47.970;7.830;2024-01-30T17:04:26;14.83;;;6.80;;
20956;SDS011;10637;47.970;7.830;2024-01-30T17:09:28;16.83;;;7.20;;
20956;SDS011;10637;47.970;7.830;2024-01-30T17:14:30;29.97;;;15.10;;
20956;SDS011;10637;47.970;7.830;2024-01-30T17:19:32;24.27;;;10.90;;
20956;SDS011;10637;47.970;7.830;2024-01-30T17:24:34;35.07;;;15.10;;
20956;SDS011;10637;47.970;7.830;2024-01-30T17:29:49;25.23;;;11.43;;
20956;SDS011;10637;47.970;7.830;2024-01-30T17:34:51;25.93;;;9.67;;
20956;SDS011;10637;47.970;7.830;2024-01-30T17:39:53;20.70;;;8.83;;
20956;SDS011;10637;47.970;7.830;2024-01-30T17:44:55;21.73;;;9.63;;
20956;SDS011;10637;47.970;7.830;2024-01-30T17:49:58;15.70;;;6.90;;
20956;SDS011;10637;47.970;7.830;2024-01-30T17:55:04;17.83;;;7.87;;
20956;SDS011;10637;47.970;7.830;2024-01-30T18:00:06;24.83;;;11.20;;
20956;SDS011;10637;47.970;7.830;2024-01-30T18:05:11;16.07;;;8.47;;
20956;SDS011;10637;47.970;7.830;2024-01-30T18:10:13;23.17;;;10.20;;
20956;SDS011;10637;47.970;7.830;2024-01-30T18:15:20;26.90;;;11.50;;
20956;SDS011;10637;47.970;7.830;2024-01-30T18:20:22;26.63;;;13.37;;
20956;SDS011;10637;47.970;7.830;2024-01-30T18:25:24;30.77;;;17.27;;
20956;SDS011;10637;47.970;7.830;2024-01-30T18:30:25;20.97;;;10.37;;
20956;SDS011;10637;47.970;7.830;2024-01-30T18:35:27;27.53;;;13.07;;
20956;SDS011;10637;47.970;7.830;2024-01-30T18:40:37;27.60;;;13.77;;
20956;SDS011;10637;47.970;7.830;2024-01-30T18:45:40;26.57;;;13.37;;
20956;SDS011;10637;47.970;7.830;2024-01-30T18:50:42;29.83;;;16.80;;
20956;SDS011;10637;47.970;7.830;2024-01-30T18:55:46;24.63;;;14.53;;
20956;SDS011;10637;47.970;7.830;2024-01-30T19:00:48;27.80;;;13.43;;
20956;SDS011;10637;47.970;7.830;2024-01-30T19:05:50;20.73;;;9.63;;
20956;SDS011;10637;47.970;7.830;2024-01-30T19:10:52;32.43;;;15.07;;
20956;SDS011;10637;47.970;7.830;2024-01-30T19:15:55;28.90;;;14.07;;
20956;SDS011;10637;47.970;7.830;2024-01-30T19:20:57;21.17;;;10.30;;
20956;SDS011;10637;47.970;7.830;2024-01-30T19:25:59;34.37;;;17.40;;
20956;SDS011;10637;47.970;7.830;2024-01-30T19:31:10;36.23;;;17.93;;
20956;SDS011;10637;47.970;7.830;2024-01-30T19:36:14;33.73;;;18.43;;
20956;SDS011;10637;47.970;7.830;2024-01-30T19:41:16;19.47;;;8.60;;
20956;SDS011;10637;47.970;7.830;2024-01-30T19:46:19;27.27;;;14.33;;
20956;SDS011;10637;47.970;7.830;2024-01-30T19:51:21;23.20;;;12.37;;
20956;SDS011;10637;47.970;7.830;2024-01-30T19:56:23;15.87;;;7.20;;
20956;SDS011;10637;47.970;7.830;2024-01-30T20:01:25;13.80;;;5.40;;
20956;SDS011;10637;47.970;7.830;2024-01-30T20:06:28;19.30;;;9.93;;
20956;SDS011;10637;47.970;7.830;2024-01-30T20:11:30;15.47;;;7.00;;
20956;SDS011;10637;47.970;7.830;2024-01-30T20:16:36;18.27;;;8.33;;
20956;SDS011;10637;47.970;7.830;2024-01-30T20:21:43;15.37;;;6.40;;
20956;SDS011;10637;47.970;7.830;2024-01-30T20:26:48;12.47;;;5.57;;
20956;SDS011;10637;47.970;7.830;2024-01-30T20:31:50;12.07;;;5.90;;
20956;SDS011;10637;47.970;7.830;2024-01-30T20:37:02;13.17;;;5.60;;
20956;SDS011;10637;47.970;7.830;2024-01-30T20:42:04;16.30;;;6.50;;
20956;SDS011;10637;47.970;7.830;2024-01-30T20:47:08;12.00;;;5.60;;
20956;SDS011;10637;47.970;7.830;2024-01-30T20:52:10;13.87;;;5.63;;
20956;SDS011;10637;47.970;7.830;2024-01-30T20:57:15;17.27;;;7.33;;
20956;SDS011;10637;47.970;7.830;2024-01-30T21:02:17;16.60;;;7.67;;
20956;SDS011;10637;47.970;7.830;2024-01-30T21:07:19;13.13;;;5.73;;
20956;SDS011;10637;47.970;7.830;2024-01-30T21:12:26;14.60;;;5.60;;
20956;SDS011;10637;47.970;7.830;2024-01-30T21:17:32;9.43;;;4.00;;
20956;SDS011;10637;47.970;7.830;2024-01-30T21:22:34;9.60;;;4.00;;
20956;SDS011;10637;47.970;7.830;2024-01-30T21:27:36;13.67;;;4.50;;
20956;SDS011;10637;47.970;7.830;2024-01-30T21:32:39;10.97;;;4.33;;
20956;SDS011;10637;47.970;7.830;2024-01-30T21:37:43;10.00;;;4.30;;
20956;SDS011;10637;47.970;7.830;2024-01-30T21:42:45;10.13;;;4.40;;
20956;SDS011;10637;47.970;7.830;2024-01-30T21:47:50;14.80;;;5.10;;
20956;SDS011;10637;47.970;7.830;2024-01-30T21:52:52;15.30;;;4.90;;
20956;SDS011;10637;47.970;7.830;2024-01-30T21:57:53;11.00;;;4.70;;
20956;SDS011;10637;47.970;7.830;2024-01-30T22:02:55;10.37;;;4.17;;
20956;SDS011;10637;47.970;7.830;2024-01-30T22:07:57;14.57;;;5.83;;
20956;SDS011;10637;47.970;7.830;2024-01-30T22:13:01;12.60;;;4.47;;
20956;SDS011;10637;47.970;7.830;2024-01-30T22:18:04;10.73;;;4.17;;
20956;SDS011;10637;47.970;7.830;2024-01-30T22:23:06;9.93;;;3.93;;
20956;SDS011;10637;47.970;7.830;2024-01-30T22:28:08;11.37;;;3.37;;
20956;SDS011;10637;47.970;7.830;2024-01-30T22:33:10;9.77;;;3.80;;
20956;SDS011;10637;47.970;7.830;2024-01-30T22:38:12;8.83;;;3.57;;
20956;SDS011;10637;47.970;7.830;2024-01-30T22:43:14;11.20;;;4.07;;
20956;SDS011;10637;47.970;7.830;2024-01-30T22:48:16;12.47;;;4.00;;
20956;SDS011;10637;47.970;7.830;2024-01-30T22:53:20;13.30;;;4.43;;
20956;SDS011;10637;47.970;7.830;2024-01-30T22:58:24;9.97;;;3.77;;
20956;SDS011;10637;47.970;7.830;2024-01-30T23:03:26;12.93;;;3.93;;
20956;SDS011;10637;47.970;7.830;2024-01-30T23:08:29;9.73;;;3.83;;
20956;SDS011;10637;47.970;7.830;2024-01-30T23:13:30;12.17;;;5.47;;
20956;SDS011;10637;47.970;7.830;2024-01-30T23:18:32;11.77;;;4.37;;
20956;SDS011;10637;47.970;7.830;2024-01-30T23:23:34;12.10;;;4.90;;
20956;SDS011;10637;47.970;7.830;2024-01-30T23:28:36;11.50;;;4.67;;
20956;SDS011;10637;47.970;7.830;2024-01-30T23:33:38;13.87;;;4.10;;
20956;SDS011;10637;47.970;7.830;2024-01-30T23:38:42;12.27;;;5.03;;
20956;SDS011;10637;47.970;7.830;2024-01-30T23:43:44;12.03;;;5.00;;
20956;SDS011;10637;47.970;7.830;2024-01-30T23:48:46;16.47;;;6.47;;
20956;SDS011;10637;47.970;7.830;2024-01-30T23:53:48;14.67;;;5.40;;
20956;SDS011;10637;47.970;7.830;2024-01-30T23:58:50;13.07;;;5.20;;
